createdAt,value
2022-12-28T00:05:42.316Z,101339.09
2022-12-28T00:15:43.690Z,101326.50
2022-12-28T00:25:45.055Z,101326.94
2022-12-28T00:35:53.585Z,101310.81
2022-12-28T00:45:55.057Z,101269.72
2022-12-28T00:56:04.586Z,101253.66
2022-12-28T01:06:07.243Z,101225.47
2022-12-28T01:16:15.860Z,101221.25
2022-12-28T01:26:17.330Z,101204.28
2022-12-28T01:36:24.526Z,101188.84
2022-12-28T01:46:39.904Z,101168.25
2022-12-28T01:56:42.985Z,101145.25
2022-12-28T02:06:44.870Z,101137.59
2022-12-28T02:16:46.843Z,101113.88
2022-12-28T02:26:56.695Z,101091.09
2022-12-28T02:37:10.156Z,101069.97
2022-12-28T02:47:34.075Z,101050.53
2022-12-28T02:57:50.224Z,101035.38
2022-12-28T03:08:22.355Z,101015.84
2022-12-28T03:18:44.285Z,101005.66
2022-12-28T03:29:06.123Z,100983.41
2022-12-28T03:39:22.114Z,100975.00
2022-12-28T03:49:24.770Z,100969.13
2022-12-28T03:59:26.145Z,100944.53
2022-12-28T04:09:28.367Z,100936.00
2022-12-28T04:19:29.733Z,100922.28
2022-12-28T04:29:31.105Z,100918.91
2022-12-28T04:39:55.145Z,100905.41
2022-12-28T04:49:53.999Z,100891.88
2022-12-28T04:59:55.350Z,100886.81
2022-12-28T05:09:56.831Z,100871.47
2022-12-28T05:19:58.191Z,100869.91
2022-12-28T05:29:59.535Z,100872.69
2022-12-28T05:40:01.636Z,100872.06
2022-12-28T05:50:03.098Z,100868.56
2022-12-28T06:00:05.148Z,100863.59
2022-12-28T06:10:07.173Z,100849.97
2022-12-28T06:20:09.133Z,100843.06
2022-12-28T06:30:11.359Z,100846.50
2022-12-28T06:40:14.151Z,100852.63
2022-12-28T06:50:15.584Z,100839.72
2022-12-28T07:00:17.622Z,100832.94
2022-12-28T07:10:18.989Z,100827.78
2022-12-28T07:20:20.594Z,100831.31
2022-12-28T07:30:22.054Z,100817.66
2022-12-28T07:40:23.460Z,100808.19
2022-12-28T07:50:24.866Z,100806.53
2022-12-28T08:00:26.323Z,100809.16
2022-12-28T08:10:27.736Z,100805.72
2022-12-28T08:20:29.113Z,100800.66
2022-12-28T08:30:30.528Z,100795.50
2022-12-28T08:40:31.969Z,100800.75
2022-12-28T08:50:33.357Z,100805.94
2022-12-28T09:00:34.712Z,100805.19
2022-12-28T09:10:36.065Z,100810.41
2022-12-28T09:20:38.473Z,100802.75
2022-12-28T09:30:42.205Z,100802.84
2022-12-28T09:40:44.405Z,100793.44
2022-12-28T09:50:47.591Z,100796.97
2022-12-28T10:00:52.715Z,100787.59
2022-12-28T10:10:58.827Z,100773.00
2022-12-28T10:21:00.298Z,100767.06
2022-12-28T10:31:09.907Z,100751.72
2022-12-28T10:41:15.725Z,100752.59
2022-12-28T10:51:22.289Z,100750.91
2022-12-28T11:01:27.735Z,100721.69
2022-12-28T11:11:29.313Z,100720.88
2022-12-28T11:21:33.281Z,100711.44
2022-12-28T11:31:40.096Z,100707.19
2022-12-28T11:41:51.232Z,100683.09
2022-12-28T11:52:17.051Z,100675.38
2022-12-28T12:02:18.371Z,100672.78
2022-12-28T12:12:19.659Z,100668.50
2022-12-28T12:22:31.905Z,100642.69
2022-12-28T12:33:05.843Z,100642.72
2022-12-28T12:43:31.833Z,100630.66
2022-12-28T12:54:02.508Z,100618.56
2022-12-28T13:04:13.393Z,100616.00
2022-12-28T13:14:20.844Z,100603.09
2022-12-28T13:24:45.683Z,100584.16
2022-12-28T13:34:49.890Z,100563.50
2022-12-28T13:44:59.801Z,100546.31
2022-12-28T13:55:05.875Z,100529.09
2022-12-28T14:05:08.795Z,100531.69
2022-12-28T14:15:11.684Z,100516.19
2022-12-28T14:25:15.578Z,100503.28
2022-12-28T14:35:20.848Z,100477.47
2022-12-28T14:56:13.787Z,100449.91
2022-12-28T15:06:15.326Z,100428.41
2022-12-28T15:16:22.834Z,100407.75
2022-12-28T15:26:24.476Z,100381.09
2022-12-28T15:36:26.032Z,100363.00
2022-12-28T15:46:27.819Z,100357.84
2022-12-28T15:56:32.158Z,100333.75
2022-12-28T16:06:37.118Z,100315.69
2022-12-28T16:16:42.824Z,100314.78
2022-12-28T16:26:44.454Z,100294.09
2022-12-28T16:36:47.000Z,100270.91
2022-12-28T16:46:49.454Z,100250.22
2022-12-28T16:56:52.058Z,100220.06
2022-12-28T17:06:53.669Z,100209.78
2022-12-28T17:16:55.063Z,100207.25
2022-12-28T17:26:59.181Z,100200.44
2022-12-28T17:37:03.569Z,100188.47
2022-12-28T17:47:05.026Z,100175.59
2022-12-28T17:57:06.415Z,100161.88
2022-12-28T18:07:08.364Z,100149.91
2022-12-28T18:17:09.782Z,100139.63
2022-12-28T18:27:11.513Z,100122.44
2022-12-28T18:37:12.939Z,100121.59
2022-12-28T18:47:15.168Z,100100.13
2022-12-28T18:57:16.559Z,100077.78
2022-12-28T19:07:18.483Z,100067.53
2022-12-28T19:17:20.010Z,100056.38
2022-12-28T19:27:21.513Z,100061.47
2022-12-28T19:37:22.861Z,100050.34
2022-12-28T19:47:24.298Z,100034.91
2022-12-28T19:57:25.674Z,100029.75
2022-12-28T20:07:27.054Z,100006.44
2022-12-28T20:17:29.604Z,100009.03
2022-12-28T20:27:31.023Z,99992.69
2022-12-28T20:37:32.454Z,99993.53
2022-12-28T20:47:33.839Z,99981.47
2022-12-28T20:57:35.464Z,99980.56
2022-12-28T21:07:36.949Z,99986.53
2022-12-28T21:17:38.431Z,99969.25
2022-12-28T21:27:39.801Z,99953.78
2022-12-28T21:37:41.215Z,99948.47
2022-12-28T21:47:42.628Z,99943.19
2022-12-28T21:57:44.147Z,99932.75
2022-12-28T22:07:46.107Z,99918.06
2022-12-28T22:17:47.476Z,99921.41
2022-12-28T22:27:48.886Z,99904.97
2022-12-28T22:37:50.408Z,99920.38
2022-12-28T22:47:55.143Z,99896.97
2022-12-28T22:57:56.576Z,99891.03
2022-12-28T23:07:57.955Z,99871.91
2022-12-28T23:18:19.599Z,99878.81
2022-12-28T23:28:20.999Z,99866.56
2022-12-28T23:38:22.353Z,99850.88
2022-12-28T23:48:23.684Z,99831.06
2022-12-28T23:58:25.039Z,99819.00
